Time;durP1;ratioP1;P1;durP2;ratioP2;P2;SDS_P1;SDS_P2;PMS_P1;PMS_P2;Temp;Humidity;BMP_temperature;BMP_pressure;BME280_temperature;BME280_humidity;BME280_pressure;Samples;Min_cycle;Max_cycle;Signal;HPM_P1;HPM_P2
2023/03/09 00:02:04;;;;;;;;;;;;;;;1.17;87.00;96319.47;5051296;28;20011;-84
2023/03/09 00:04:29;;;;;;;;;;;;;;;1.21;88.85;96325.81;5069437;28;19923;-84
2023/03/09 00:06:55;;;;;;;;;;;;;;;1.47;87.63;96330.19;5070647;28;19925;-85
2023/03/09 00:09:20;;;;;;;;;;;;;;;1.42;87.19;96332.81;5068281;28;20311;-84
2023/03/09 00:11:47;;;;;;;;;;;;;;;1.30;87.84;96335.59;5066060;28;19966;-84
2023/03/09 00:14:12;;;;;;;;;;;;;;;1.36;87.88;96328.53;5068558;28;19924;-84
2023/03/09 00:16:38;;;;;;;;;;;;;;;1.12;88.62;96322.03;5067041;28;20433;-84
2023/03/09 00:19:04;;;;;;;;;;;;;;;1.25;88.21;96322.44;5082070;28;19959;-84
2023/03/09 00:21:36;;;;;;;;;;;;;;;1.43;87.73;96318.63;5065789;28;20011;-84
2023/03/09 00:24:06;;;;;;;;;;;;;;;1.45;87.05;96327.84;5070336;28;20133;-85
2023/03/09 00:26:32;;;;;;;;;;;;;;;1.49;87.12;96323.66;5066421;28;20006;-85
2023/03/09 00:28:58;;;;;;;;;;;;;;;1.54;87.02;96322.91;5067569;28;19921;-85
2023/03/09 00:31:23;;;;;;;;;;;;;;;1.35;87.09;96322.53;5063563;28;19923;-85
2023/03/09 00:33:49;;;;;;;;;;;;;;;1.45;86.95;96317.31;5067451;28;19928;-84
2023/03/09 00:36:14;;;;;;;;;;;;;;;1.50;86.67;96314.75;5034850;28;19924;-84
2023/03/09 00:38:40;;;;;;;;;;;;;;;1.45;86.88;96300.75;5045468;28;20101;-85
2023/03/09 00:41:05;;;;;;;;;;;;;;;0.53;89.84;96298.41;5051227;28;19999;-84
2023/03/09 00:43:30;;;;;;;;;;;;;;;0.69;90.70;96302.00;5053299;28;19928;-84
2023/03/09 00:45:55;;;;;;;;;;;;;;;1.19;89.57;96302.41;5053199;28;19924;-83
2023/03/09 00:48:21;;;;;;;;;;;;;;;1.29;87.82;96301.72;5043049;28;19928;-84
2023/03/09 00:50:46;;;;;;;;;;;;;;;0.90;88.71;96293.25;5058148;28;20039;-84
2023/03/09 00:53:11;;;;;;;;;;;;;;;0.55;90.45;96300.78;5066709;28;19957;-85
2023/03/09 00:55:36;;;;;;;;;;;;;;;0.95;89.88;96301.16;5051428;28;19943;-84
2023/03/09 00:58:02;;;;;;;;;;;;;;;1.36;88.17;96303.06;5036013;28;19981;-85
2023/03/09 01:00:27;;;;;;;;;;;;;;;1.21;88.07;96295.09;5048375;28;19928;-85
2023/03/09 01:02:53;;;;;;;;;;;;;;;1.37;87.98;96293.34;5034464;28;19931;-86
2023/03/09 01:05:19;;;;;;;;;;;;;;;1.45;87.29;96301.56;5065660;28;19920;-85
2023/03/09 01:07:44;;;;;;;;;;;;;;;1.50;86.94;96293.72;5061576;28;19923;-85
2023/03/09 01:10:11;;;;;;;;;;;;;;;1.47;87.13;96282.91;5067345;28;19921;-87
2023/03/09 01:12:37;;;;;;;;;;;;;;;0.61;88.94;96278.81;5048733;28;20586;-86
2023/03/09 01:15:03;;;;;;;;;;;;;;;0.83;90.28;96279.53;5063892;28;19955;-86
2023/03/09 01:17:41;;;;;;;;;;;;;;;;;;;;;
2023/03/09 01:23:23;;;;;;;;;;;;;;;0.67;90.40;96267.31;5067624;28;19924;-85
2023/03/09 01:26:08;;;;;;;;;;;;;;;1.06;89.91;96263.44;5051492;28;20327;-84
2023/03/09 01:28:34;;;;;;;;;;;;;;;1.25;88.84;96267.25;5066556;28;19917;-86
2023/03/09 01:31:00;;;;;;;;;;;;;;;1.35;88.02;96258.66;5070091;28;20315;-86
2023/03/09 01:33:25;;;;;;;;;;;;;;;1.31;87.96;96258.34;5069161;28;20055;-84
2023/03/09 01:35:50;;;;;;;;;;;;;;;1.41;87.70;96257.63;5061618;28;19968;-84
2023/03/09 01:38:16;;;;;;;;;;;;;;;1.38;87.67;96251.06;5052847;28;20738;-83
2023/03/09 01:40:44;;;;;;;;;;;;;;;1.46;87.37;96250.56;5056381;28;20043;-83
2023/03/09 01:43:27;;;;;;;;;;;;;;;1.42;87.11;96241.63;5052588;28;20376;-83
2023/03/09 01:46:11;;;;;;;;;;;;;;;1.01;88.04;96242.41;5058891;28;19960;-83
2023/03/09 01:48:36;;;;;;;;;;;;;;;1.19;88.19;96226.25;5056816;28;19920;-83
2023/03/09 01:51:02;;;;;;;;;;;;;;;0.52;89.45;96222.59;5078436;28;20499;-82
2023/03/09 01:53:27;;;;;;;;;;;;;;;0.58;91.32;96211.09;5040093;28;20022;-83
2023/03/09 01:55:52;;;;;;;;;;;;;;;1.14;89.66;96218.31;5033434;28;19929;-82
2023/03/09 01:58:23;;;;;;;;;;;;;;;1.30;88.31;96225.25;5049525;28;19956;-83
2023/03/09 02:00:50;;;;;;;;;;;;;;;1.37;87.49;96225.84;5060543;28;19920;-83
2023/03/09 02:03:16;;;;;;;;;;;;;;;1.37;87.70;96231.09;5045908;28;19928;-83
2023/03/09 02:05:45;;;;;;;;;;;;;;;1.41;87.84;96229.53;5067194;28;19928;-84
2023/03/09 02:08:12;;;;;;;;;;;;;;;1.50;87.07;96237.72;5068151;28;19917;-83
2023/03/09 02:10:42;;;;;;;;;;;;;;;1.49;86.95;96239.56;5064478;28;19928;-83
2023/03/09 02:13:10;;;;;;;;;;;;;;;1.44;87.05;96233.50;5062612;28;19921;-83
2023/03/09 02:15:35;;;;;;;;;;;;;;;1.39;87.89;96231.63;5062534;28;19921;-83
2023/03/09 02:18:00;;;;;;;;;;;;;;;1.38;87.66;96234.50;5061543;28;19921;-84
2023/03/09 02:20:26;;;;;;;;;;;;;;;0.76;88.56;96250.09;5059482;28;19917;-83
2023/03/09 02:22:51;;;;;;;;;;;;;;;0.76;90.28;96239.59;5062826;28;19916;-84
2023/03/09 02:25:33;;;;;;;;;;;;;;;0.62;89.67;96223.47;5063351;28;19924;-83
2023/03/09 02:27:59;;;;;;;;;;;;;;;0.87;90.85;96225.50;5068422;28;19921;-84
2023/03/09 02:30:26;;;;;;;;;;;;;;;1.24;88.86;96234.16;5065766;28;20387;-84
2023/03/09 02:33:00;;;;;;;;;;;;;;;0.99;88.92;96235.81;5062660;28;19928;-83
2023/03/09 02:35:25;;;;;;;;;;;;;;;1.21;88.58;96220.72;5064817;28;19916;-83
2023/03/09 02:37:51;;;;;;;;;;;;;;;1.35;87.96;96233.19;5053181;28;19935;-83
2023/03/09 02:40:31;;;;;;;;;;;;;;;1.36;88.07;96229.50;5048417;28;20043;-82
2023/03/09 02:42:56;;;;;;;;;;;;;;;1.38;87.83;96229.22;5051770;28;19963;-84
2023/03/09 02:45:22;;;;;;;;;;;;;;;1.44;87.28;96246.63;5045117;28;19932;-83
2023/03/09 02:47:47;;;;;;;;;;;;;;;1.51;87.04;96242.72;5052852;28;19931;-83
2023/03/09 02:50:13;;;;;;;;;;;;;;;1.49;87.26;96249.28;5051088;28;19928;-83
2023/03/09 02:52:39;;;;;;;;;;;;;;;1.12;87.33;96259.00;5053826;28;20347;-82
2023/03/09 02:55:05;;;;;;;;;;;;;;;0.83;89.07;96255.13;5050452;28;20050;-83
2023/03/09 02:57:31;;;;;;;;;;;;;;;0.56;90.30;96255.16;5052912;28;20379;-82
2023/03/09 02:59:56;;;;;;;;;;;;;;;1.12;89.35;96265.06;5066717;28;19971;-84
2023/03/09 03:02:21;;;;;;;;;;;;;;;1.19;88.80;96252.50;5035630;28;19946;-84
2023/03/09 03:04:47;;;;;;;;;;;;;;;1.39;88.12;96268.41;5051254;28;20059;-84
2023/03/09 03:07:12;;;;;;;;;;;;;;;1.42;87.55;96275.78;5055988;28;19925;-84
2023/03/09 03:09:37;;;;;;;;;;;;;;;1.45;87.03;96280.53;5051758;28;19932;-83
2023/03/09 03:12:02;;;;;;;;;;;;;;;1.25;87.55;96285.66;5053997;28;19925;-85
2023/03/09 03:14:28;;;;;;;;;;;;;;;0.58;89.71;96281.94;5049935;28;19916;-84
2023/03/09 03:16:53;;;;;;;;;;;;;;;1.01;89.57;96279.16;5052596;28;21536;-84
2023/03/09 03:19:19;;;;;;;;;;;;;;;1.21;88.46;96278.53;5054220;28;20002;-84
2023/03/09 03:21:45;;;;;;;;;;;;;;;1.18;88.60;96279.81;5064417;28;19917;-84
2023/03/09 03:24:10;;;;;;;;;;;;;;;0.94;88.62;96283.06;5055522;28;20042;-84
2023/03/09 03:26:35;;;;;;;;;;;;;;;1.29;88.57;96291.22;5073833;28;19935;-84
2023/03/09 03:29:00;;;;;;;;;;;;;;;1.37;87.73;96293.34;5050066;28;19916;-84
2023/03/09 03:31:26;;;;;;;;;;;;;;;1.51;87.11;96315.50;5051768;28;20404;-83
2023/03/09 03:33:51;;;;;;;;;;;;;;;1.44;87.11;96304.44;5058160;28;19987;-84
2023/03/09 03:36:16;;;;;;;;;;;;;;;0.94;88.74;96315.34;5055521;28;19929;-83
2023/03/09 03:38:41;;;;;;;;;;;;;;;0.99;89.29;96320.63;5057725;28;19936;-83
2023/03/09 03:41:06;;;;;;;;;;;;;;;1.18;88.93;96327.09;5057014;28;19928;-84
2023/03/09 03:43:32;;;;;;;;;;;;;;;1.19;88.41;96323.44;5055979;28;19924;-83
2023/03/09 03:45:57;;;;;;;;;;;;;;;1.38;87.83;96329.09;5061655;28;20399;-85
2023/03/09 03:48:22;;;;;;;;;;;;;;;1.36;87.71;96345.09;5071127;28;20402;-85
2023/03/09 03:50:47;;;;;;;;;;;;;;;0.44;90.38;96341.06;5066628;28;20373;-83
2023/03/09 03:53:13;;;;;;;;;;;;;;;0.27;91.37;96350.84;5065960;28;19932;-84
2023/03/09 03:55:38;;;;;;;;;;;;;;;0.29;92.05;96352.19;5067993;28;19920;-84
2023/03/09 03:58:03;;;;;;;;;;;;;;;0.13;92.89;96349.66;5068597;28;20065;-82
2023/03/09 04:00:29;;;;;;;;;;;;;;;0.11;93.02;96352.50;5045571;28;19943;-84
2023/03/09 04:02:54;;;;;;;;;;;;;;;0.18;93.89;96362.81;5066965;28;20387;-83
2023/03/09 04:05:20;;;;;;;;;;;;;;;0.12;93.59;96359.34;5063380;28;19924;-82
2023/03/09 04:07:46;;;;;;;;;;;;;;;0.30;92.98;96366.09;5069069;28;19917;-83
2023/03/09 04:10:11;;;;;;;;;;;;;;;0.34;93.28;96364.59;5065580;28;19970;-84
2023/03/09 04:12:36;;;;;;;;;;;;;;;-0.25;93.88;96379.28;5050877;28;19935;-83
2023/03/09 04:15:02;;;;;;;;;;;;;;;0.13;94.28;96384.53;5063604;28;20037;-84
2023/03/09 04:17:27;;;;;;;;;;;;;;;-0.12;94.75;96384.97;5071206;28;19981;-83
2023/03/09 04:19:52;;;;;;;;;;;;;;;0.11;94.96;96376.09;5060103;28;19931;-82
2023/03/09 04:22:19;;;;;;;;;;;;;;;-0.02;95.36;96390.34;5047814;28;19924;-83
2023/03/09 04:24:47;;;;;;;;;;;;;;;0.16;94.15;96391.09;5062329;28;19959;-84
2023/03/09 04:27:12;;;;;;;;;;;;;;;-0.02;95.07;96385.09;5068666;28;19931;-85
2023/03/09 04:29:39;;;;;;;;;;;;;;;0.50;94.32;96398.59;5067878;28;19929;-83
2023/03/09 04:32:04;;;;;;;;;;;;;;;0.61;93.20;96396.91;5066174;28;19936;-83
2023/03/09 04:34:30;;;;;;;;;;;;;;;0.88;91.77;96383.78;5068338;28;19924;-85
2023/03/09 04:36:55;;;;;;;;;;;;;;;0.82;90.53;96384.78;5049115;28;20308;-84
2023/03/09 04:39:20;;;;;;;;;;;;;;;1.03;89.97;96387.38;5068741;28;20281;-83
2023/03/09 04:41:46;;;;;;;;;;;;;;;1.23;88.99;96398.06;5065656;28;19966;-83
2023/03/09 04:44:11;;;;;;;;;;;;;;;1.24;88.80;96412.00;5064561;28;19966;-83
2023/03/09 04:46:36;;;;;;;;;;;;;;;1.37;88.54;96408.97;5062773;28;19920;-83
2023/03/09 04:49:01;;;;;;;;;;;;;;;1.39;87.99;96425.28;5047184;28;20614;-84
2023/03/09 04:51:27;;;;;;;;;;;;;;;1.42;87.60;96422.94;5065035;28;19920;-84
2023/03/09 04:53:52;;;;;;;;;;;;;;;1.43;87.57;96424.53;5064070;28;20311;-83
2023/03/09 04:56:18;;;;;;;;;;;;;;;1.44;87.54;96433.22;5066445;28;20064;-83
2023/03/09 04:58:43;;;;;;;;;;;;;;;1.36;87.63;96423.94;5064022;28;19921;-83
2023/03/09 05:01:09;;;;;;;;;;;;;;;1.45;87.55;96430.31;5064150;28;19927;-84
2023/03/09 05:03:34;;;;;;;;;;;;;;;1.45;87.43;96427.69;5063416;28;19917;-84
2023/03/09 05:05:59;;;;;;;;;;;;;;;1.45;87.58;96426.91;5064732;28;20015;-85
2023/03/09 05:08:24;;;;;;;;;;;;;;;1.49;87.22;96433.25;5048958;28;20455;-83
2023/03/09 05:10:49;;;;;;;;;;;;;;;1.45;87.43;96451.34;5061700;28;20295;-83
2023/03/09 05:13:15;;;;;;;;;;;;;;;1.42;87.34;96457.09;5044570;28;20433;-83
2023/03/09 05:15:41;;;;;;;;;;;;;;;1.44;87.24;96460.25;5064563;28;19920;-83
2023/03/09 05:18:07;;;;;;;;;;;;;;;1.47;87.66;96480.81;5068908;28;19935;-85
2023/03/09 05:20:32;;;;;;;;;;;;;;;1.48;87.54;96490.28;5059597;28;19920;-83
2023/03/09 05:22:58;;;;;;;;;;;;;;;1.41;87.63;96487.06;5070025;28;19928;-85
2023/03/09 05:25:23;;;;;;;;;;;;;;;1.52;87.29;96486.13;5063362;28;19927;-87
2023/03/09 05:27:49;;;;;;;;;;;;;;;1.46;87.21;96489.72;5047532;28;19931;-86
2023/03/09 05:30:14;;;;;;;;;;;;;;;1.45;87.29;96490.78;5072318;28;19921;-85
2023/03/09 05:32:40;;;;;;;;;;;;;;;1.43;87.38;96484.97;5068889;28;19984;-86
2023/03/09 05:35:05;;;;;;;;;;;;;;;1.46;87.23;96487.09;5056606;28;19921;-85
2023/03/09 05:37:31;;;;;;;;;;;;;;;1.44;87.43;96483.91;5067111;28;20431;-84
2023/03/09 05:39:57;;;;;;;;;;;;;;;1.51;87.64;96484.50;5083819;28;19954;-85
2023/03/09 05:42:22;;;;;;;;;;;;;;;1.47;87.39;96491.31;5071183;28;20026;-86
2023/03/09 05:44:47;;;;;;;;;;;;;;;1.51;87.16;96497.66;5051100;28;19928;-85
2023/03/09 05:47:12;;;;;;;;;;;;;;;1.41;87.27;96504.66;5055365;28;19935;-85
2023/03/09 05:49:38;;;;;;;;;;;;;;;1.43;87.50;96503.38;5049806;28;19940;-85
2023/03/09 05:52:03;;;;;;;;;;;;;;;1.51;87.53;96510.00;5065013;28;19927;-84
2023/03/09 05:54:28;;;;;;;;;;;;;;;1.19;87.66;96503.88;5066784;28;19969;-84
2023/03/09 05:56:54;;;;;;;;;;;;;;;1.36;87.95;96513.28;5064289;28;19922;-85
2023/03/09 05:59:19;;;;;;;;;;;;;;;1.39;87.83;96522.50;5072058;28;19916;-87
2023/03/09 06:01:45;;;;;;;;;;;;;;;1.46;87.72;96523.88;5072600;28;19941;-86
2023/03/09 06:04:10;;;;;;;;;;;;;;;1.41;87.86;96534.34;5054862;28;19920;-85
2023/03/09 06:06:35;;;;;;;;;;;;;;;1.43;87.81;96537.53;5071856;28;19920;-85
2023/03/09 06:09:00;;;;;;;;;;;;;;;1.45;87.63;96547.78;5054358;28;19932;-84
2023/03/09 06:11:26;;;;;;;;;;;;;;;1.41;87.48;96557.22;5065791;28;19927;-85
2023/03/09 06:13:54;;;;;;;;;;;;;;;1.44;87.70;96567.25;5076536;28;19927;-86
2023/03/09 06:16:20;;;;;;;;;;;;;;;1.47;87.56;96562.28;5074457;28;20365;-84
2023/03/09 06:18:45;;;;;;;;;;;;;;;0.87;88.70;96571.25;5082446;28;19925;-85
2023/03/09 06:21:11;;;;;;;;;;;;;;;0.30;91.36;96578.56;5053868;28;19982;-85
2023/03/09 06:23:36;;;;;;;;;;;;;;;0.20;93.37;96597.56;5066130;28;19916;-84
2023/03/09 06:26:03;;;;;;;;;;;;;;;0.28;93.24;96601.63;5071810;28;20566;-84
2023/03/09 06:28:28;;;;;;;;;;;;;;;0.72;93.00;96601.50;5067327;28;19916;-86
2023/03/09 06:30:53;;;;;;;;;;;;;;;0.21;92.63;96607.03;5068569;28;19924;-83
2023/03/09 06:33:19;;;;;;;;;;;;;;;-0.10;94.44;96605.72;5071711;28;19927;-85
2023/03/09 06:35:44;;;;;;;;;;;;;;;-0.14;95.69;96617.72;5072836;28;19920;-85
2023/03/09 06:38:09;;;;;;;;;;;;;;;-0.27;96.68;96617.22;5081382;28;19931;-85
2023/03/09 06:40:34;;;;;;;;;;;;;;;-0.26;96.78;96616.16;5069173;28;19963;-83
2023/03/09 06:43:00;;;;;;;;;;;;;;;-0.35;97.65;96622.84;5049587;28;19925;-83
2023/03/09 06:45:25;;;;;;;;;;;;;;;-0.57;98.08;96622.69;5069997;28;19918;-84
2023/03/09 06:47:54;;;;;;;;;;;;;;;-0.09;97.84;96625.66;5049040;28;19921;-84
2023/03/09 06:50:20;;;;;;;;;;;;;;;0.44;96.59;96632.31;5085738;28;19921;-84
2023/03/09 06:52:45;;;;;;;;;;;;;;;0.71;94.52;96623.56;5050618;28;19927;-84
2023/03/09 06:55:10;;;;;;;;;;;;;;;0.92;92.33;96629.88;5053943;28;19921;-85
2023/03/09 06:57:36;;;;;;;;;;;;;;;1.17;90.83;96640.75;5075318;28;19970;-84
2023/03/09 07:00:03;;;;;;;;;;;;;;;0.46;91.59;96654.66;5055947;28;19942;-85
2023/03/09 07:02:28;;;;;;;;;;;;;;;-0.06;94.74;96656.66;5073488;28;20702;-85
2023/03/09 07:04:54;;;;;;;;;;;;;;;-0.43;96.93;96673.75;5068110;28;19917;-85
2023/03/09 07:07:19;;;;;;;;;;;;;;;-0.61;97.81;96687.00;5072626;28;19928;-84
2023/03/09 07:09:44;;;;;;;;;;;;;;;-0.53;98.14;96680.63;5073464;28;19932;-84
2023/03/09 07:12:09;;;;;;;;;;;;;;;-0.60;98.81;96693.06;5054213;28;20518;-83
2023/03/09 07:14:35;;;;;;;;;;;;;;;-0.76;99.18;96700.59;5069093;28;19921;-84
2023/03/09 07:17:00;;;;;;;;;;;;;;;-0.38;99.13;96710.56;5067952;28;19972;-85
2023/03/09 07:19:25;;;;;;;;;;;;;;;-0.27;98.35;96712.34;5070491;28;19987;-85
2023/03/09 07:21:53;;;;;;;;;;;;;;;0.02;97.82;96715.81;5071417;28;19920;-85
2023/03/09 07:24:18;;;;;;;;;;;;;;;0.17;96.46;96712.66;5071337;28;19920;-86
2023/03/09 07:26:43;;;;;;;;;;;;;;;-0.42;97.76;96713.88;5051842;28;19920;-85
2023/03/09 07:29:09;;;;;;;;;;;;;;;-0.38;97.68;96721.03;5070321;28;19925;-85
2023/03/09 07:31:34;;;;;;;;;;;;;;;-0.06;97.62;96714.34;5070666;28;19995;-87
2023/03/09 07:33:59;;;;;;;;;;;;;;;-0.12;97.25;96731.00;5071477;28;20007;-87
2023/03/09 07:36:25;;;;;;;;;;;;;;;-0.49;98.21;96715.81;5058885;28;19920;-84
2023/03/09 07:38:50;;;;;;;;;;;;;;;-0.45;98.66;96722.19;5075357;28;19938;-86
2023/03/09 07:41:16;;;;;;;;;;;;;;;-0.45;98.46;96724.81;5077430;28;19927;-87
2023/03/09 07:43:43;;;;;;;;;;;;;;;0.43;96.52;96733.06;5075085;28;19999;-85
2023/03/09 07:46:09;;;;;;;;;;;;;;;0.04;97.07;96741.78;5070749;28;19923;-86
2023/03/09 07:48:37;;;;;;;;;;;;;;;0.75;95.07;96748.06;5052160;28;20312;-85
2023/03/09 07:51:03;;;;;;;;;;;;;;;1.00;92.53;96741.63;5074672;28;20292;-86
2023/03/09 07:53:32;;;;;;;;;;;;;;;0.69;92.47;96743.75;5071155;28;19943;-87
2023/03/09 07:55:58;;;;;;;;;;;;;;;0.94;92.41;96753.09;5060462;28;20032;-87
2023/03/09 07:58:23;;;;;;;;;;;;;;;0.76;92.13;96757.50;5076806;28;19924;-87
2023/03/09 08:00:49;;;;;;;;;;;;;;;1.00;92.05;96754.75;5091176;28;19921;-83
2023/03/09 08:03:14;;;;;;;;;;;;;;;1.33;90.43;96759.97;5076442;28;19920;-86
2023/03/09 08:05:42;;;;;;;;;;;;;;;1.46;89.13;96755.16;5076948;28;19919;-86
2023/03/09 08:08:07;;;;;;;;;;;;;;;1.14;89.45;96756.81;5074615;28;21136;-86
2023/03/09 08:10:33;;;;;;;;;;;;;;;1.29;89.74;96764.13;5073218;28;20054;-86
2023/03/09 08:12:59;;;;;;;;;;;;;;;1.47;89.06;96755.97;5076677;28;19943;-86
2023/03/09 08:15:24;;;;;;;;;;;;;;;1.53;88.78;96770.75;5072419;28;19920;-85
2023/03/09 08:17:49;;;;;;;;;;;;;;;1.60;88.46;96770.59;5076312;28;19920;-85
2023/03/09 08:20:15;;;;;;;;;;;;;;;1.64;88.13;96772.50;5079066;28;20136;-83
2023/03/09 08:22:40;;;;;;;;;;;;;;;1.65;88.20;96771.47;5078216;28;20429;-84
2023/03/09 08:25:05;;;;;;;;;;;;;;;1.65;88.14;96774.09;5072044;28;19929;-85
2023/03/09 08:27:41;;;;;;;;;;;;;;;1.70;87.95;96778.63;5077473;28;20420;-85
2023/03/09 08:30:07;;;;;;;;;;;;;;;1.18;89.13;96776.28;5076183;28;19963;-84
2023/03/09 08:32:32;;;;;;;;;;;;;;;0.97;90.16;96784.91;5073744;28;19925;-84
2023/03/09 08:34:57;;;;;;;;;;;;;;;1.49;89.34;96785.44;5057903;28;19924;-85
2023/03/09 08:37:23;;;;;;;;;;;;;;;1.67;88.13;96779.91;5088497;28;19917;-84
2023/03/09 08:39:50;;;;;;;;;;;;;;;1.71;88.17;96781.00;5075932;28;20003;-85
2023/03/09 08:42:16;;;;;;;;;;;;;;;1.76;87.90;96785.53;5075708;28;20346;-84
2023/03/09 08:44:41;;;;;;;;;;;;;;;1.74;88.11;96792.88;5075083;28;19928;-84
2023/03/09 08:47:06;;;;;;;;;;;;;;;1.82;87.71;96792.44;5069028;28;19916;-84
2023/03/09 08:49:32;;;;;;;;;;;;;;;1.61;89.03;96796.66;5073268;28;20550;-84
2023/03/09 08:51:58;;;;;;;;;;;;;;;1.72;88.85;96808.09;5058189;28;20288;-84
2023/03/09 08:54:24;;;;;;;;;;;;;;;1.86;87.60;96806.69;5075344;28;20380;-84
2023/03/09 08:56:49;;;;;;;;;;;;;;;1.89;87.23;96812.28;5074238;28;19920;-84
2023/03/09 08:59:14;;;;;;;;;;;;;;;1.88;87.25;96809.91;5076266;28;20015;-84
2023/03/09 09:01:39;;;;;;;;;;;;;;;1.80;87.47;96813.75;5068724;28;19921;-85
2023/03/09 09:04:05;;;;;;;;;;;;;;;1.93;86.93;96821.28;5091489;28;19952;-85
2023/03/09 09:06:30;;;;;;;;;;;;;;;2.00;86.73;96821.09;5075710;28;19921;-85
2023/03/09 09:08:55;;;;;;;;;;;;;;;2.00;86.61;96827.16;5071877;28;20396;-85
2023/03/09 09:11:21;;;;;;;;;;;;;;;2.06;86.44;96826.19;5074467;28;19959;-85
2023/03/09 09:13:46;;;;;;;;;;;;;;;2.01;86.89;96828.75;5077070;28;20384;-85
2023/03/09 09:16:12;;;;;;;;;;;;;;;2.04;87.02;96819.56;5076792;28;20057;-85
2023/03/09 09:18:38;;;;;;;;;;;;;;;2.09;86.71;96830.16;5069716;28;19928;-84
2023/03/09 09:21:07;;;;;;;;;;;;;;;2.08;86.88;96826.75;5083614;28;19921;-85
2023/03/09 09:23:32;;;;;;;;;;;;;;;1.93;88.56;96838.88;5077716;28;19927;-83
2023/03/09 09:25:57;;;;;;;;;;;;;;;1.49;91.89;96836.16;5077160;28;19917;-83
2023/03/09 09:28:23;;;;;;;;;;;;;;;1.45;92.34;96835.06;5076087;28;19932;-84
2023/03/09 09:30:55;;;;;;;;;;;;;;;1.88;88.76;96846.72;5075136;28;19924;-85
2023/03/09 09:33:20;;;;;;;;;;;;;;;1.49;91.70;96846.69;5074703;28;20020;-83
2023/03/09 09:36:19;;;;;;;;;;;;;;;1.85;89.54;96841.94;5075667;28;19963;-84
2023/03/09 09:38:45;;;;;;;;;;;;;;;1.48;92.77;96846.94;5062601;28;19917;-84
2023/03/09 09:41:16;;;;;;;;;;;;;;;1.87;90.28;96858.28;5074189;28;19930;-83
2023/03/09 09:43:42;;;;;;;;;;;;;;;2.12;88.06;96861.25;5076483;28;19916;-84
2023/03/09 09:46:10;;;;;;;;;;;;;;;2.18;87.04;96863.69;5072877;28;19925;-84
2023/03/09 09:48:36;;;;;;;;;;;;;;;2.19;89.03;96859.22;5074358;28;20343;-84
2023/03/09 09:51:04;;;;;;;;;;;;;;;2.16;91.03;96871.03;5071238;28;19929;-84
2023/03/09 09:53:48;;;;;;;;;;;;;;;2.26;87.62;96860.66;5072426;28;19948;-85
2023/03/09 09:56:15;;;;;;;;;;;;;;;2.37;88.01;96866.84;5075900;28;19920;-84
2023/03/09 09:58:54;;;;;;;;;;;;;;;2.19;90.63;96880.28;5075207;28;19973;-83
2023/03/09 10:01:25;;;;;;;;;;;;;;;2.00;91.40;96881.59;5076327;28;19916;-84
2023/03/09 10:03:52;;;;;;;;;;;;;;;2.25;87.86;96888.00;5075211;28;19923;-83
2023/03/09 10:06:19;;;;;;;;;;;;;;;2.24;89.71;96883.00;5076326;28;19927;-84
2023/03/09 10:08:53;;;;;;;;;;;;;;;2.34;88.17;96890.22;5075728;28;19987;-84
2023/03/09 10:11:23;;;;;;;;;;;;;;;2.44;86.89;96888.53;5073055;28;19924;-84
2023/03/09 10:13:54;;;;;;;;;;;;;;;2.45;86.96;96884.03;5068394;28;19974;-85
2023/03/09 10:16:32;;;;;;;;;;;;;;;2.45;87.12;96889.28;5075460;28;19912;-83
2023/03/09 10:19:03;;;;;;;;;;;;;;;2.46;86.70;96893.53;5073709;28;19916;-84
2023/03/09 10:21:35;;;;;;;;;;;;;;;2.44;86.75;96901.69;5073587;28;19916;-84
2023/03/09 10:24:20;;;;;;;;;;;;;;;2.44;86.67;96906.16;5072409;28;19923;-82
2023/03/09 10:26:55;;;;;;;;;;;;;;;2.47;88.65;96909.06;5073183;28;20015;-84
2023/03/09 10:29:25;;;;;;;;;;;;;;;2.58;87.68;96912.66;5090347;28;19920;-84
2023/03/09 10:31:55;;;;;;;;;;;;;;;2.51;86.78;96909.41;5072510;28;19912;-82
2023/03/09 10:34:23;;;;;;;;;;;;;;;2.47;88.07;96918.84;5073881;28;19920;-83
2023/03/09 10:37:00;;;;;;;;;;;;;;;2.55;87.79;96916.56;5075997;28;19913;-84
2023/03/09 10:39:27;;;;;;;;;;;;;;;2.30;92.12;96916.22;5072296;28;19924;-82
2023/03/09 10:41:54;;;;;;;;;;;;;;;2.40;93.12;96924.28;5071674;28;19924;-83
2023/03/09 10:44:20;;;;;;;;;;;;;;;2.47;92.70;96927.50;5075804;28;19919;-84
2023/03/09 10:47:04;;;;;;;;;;;;;;;2.54;90.68;96928.13;5076345;28;20514;-83
2023/03/09 10:49:29;;;;;;;;;;;;;;;2.61;91.61;96936.66;5069994;28;19966;-84
2023/03/09 10:51:59;;;;;;;;;;;;;;;2.64;87.70;96949.34;5076558;28;19916;-84
2023/03/09 10:54:38;;;;;;;;;;;;;;;2.73;86.48;96950.47;5075452;28;20537;-84
2023/03/09 10:57:23;;;;;;;;;;;;;;;2.68;90.51;96963.59;5075301;28;19967;-84
2023/03/09 11:00:05;;;;;;;;;;;;;;;2.78;87.27;96958.44;5066907;28;20398;-84
2023/03/09 11:02:32;;;;;;;;;;;;;;;2.69;89.26;96952.00;5075411;28;19923;-84
2023/03/09 11:04:57;;;;;;;;;;;;;;;2.76;89.87;96949.19;5075340;28;19976;-84
2023/03/09 11:07:26;;;;;;;;;;;;;;;2.86;87.89;96949.34;5073706;28;20353;-84
2023/03/09 11:09:53;;;;;;;;;;;;;;;2.55;91.87;96940.25;5069677;28;19928;-84
2023/03/09 11:12:21;;;;;;;;;;;;;;;2.70;93.36;96950.19;5078005;28;19916;-84
2023/03/09 11:14:49;;;;;;;;;;;;;;;2.92;91.91;96946.50;5077821;28;19912;-84
2023/03/09 11:17:26;;;;;;;;;;;;;;;3.00;93.22;96955.81;5078243;28;20296;-84
2023/03/09 11:20:12;;;;;;;;;;;;;;;2.89;93.43;96965.44;5077236;28;19912;-83
2023/03/09 11:22:38;;;;;;;;;;;;;;;2.94;93.29;96968.13;5068227;28;20433;-84
2023/03/09 11:25:05;;;;;;;;;;;;;;;3.06;91.80;96957.44;5077716;28;20156;-84
2023/03/09 11:27:33;;;;;;;;;;;;;;;3.23;87.12;96960.03;5076149;28;20367;-84
2023/03/09 11:29:58;;;;;;;;;;;;;;;3.31;86.66;96964.84;5061302;28;20295;-84
2023/03/09 11:32:24;;;;;;;;;;;;;;;3.39;86.48;96969.66;5075537;28;19939;-83
2023/03/09 11:34:50;;;;;;;;;;;;;;;3.45;86.60;96964.19;5073728;28;19938;-83
2023/03/09 11:37:15;;;;;;;;;;;;;;;3.52;85.30;96966.63;5075921;28;19967;-84
2023/03/09 11:39:59;;;;;;;;;;;;;;;3.55;85.40;96966.94;5076791;28;20403;-84
2023/03/09 11:42:36;;;;;;;;;;;;;;;3.65;86.37;96974.13;5080010;28;19924;-84
2023/03/09 11:45:03;;;;;;;;;;;;;;;3.69;84.83;96972.59;5077863;28;19917;-84
2023/03/09 11:47:29;;;;;;;;;;;;;;;3.70;84.85;96968.91;5076400;28;19937;-84
2023/03/09 11:49:57;;;;;;;;;;;;;;;3.71;85.25;96976.56;5071169;28;19987;-84
2023/03/09 11:52:31;;;;;;;;;;;;;;;3.69;85.36;96977.88;5076471;28;20419;-83
2023/03/09 11:54:58;;;;;;;;;;;;;;;3.56;89.03;96983.56;5065760;28;19931;-83
2023/03/09 11:57:25;;;;;;;;;;;;;;;3.29;89.88;96993.28;5077547;28;20281;-82
2023/03/09 12:00:05;;;;;;;;;;;;;;;3.11;90.55;97001.50;5077284;28;20007;-84
2023/03/09 12:02:33;;;;;;;;;;;;;;;2.95;91.34;97006.59;5084536;28;19920;-84
2023/03/09 12:05:00;;;;;;;;;;;;;;;2.88;90.15;97005.22;5072281;28;19921;-84
2023/03/09 12:07:32;;;;;;;;;;;;;;;3.22;89.82;96992.69;5074143;28;19916;-83
2023/03/09 12:10:00;;;;;;;;;;;;;;;3.29;89.58;96999.38;5078567;28;20388;-84
2023/03/09 12:12:25;;;;;;;;;;;;;;;3.25;90.30;96993.00;5073229;28;19917;-84
2023/03/09 12:15:17;;;;;;;;;;;;;;;2.64;91.23;96988.84;5076902;28;19926;-83
2023/03/09 12:17:49;;;;;;;;;;;;;;;2.68;92.03;96978.59;5073295;28;19920;-84
2023/03/09 12:20:27;;;;;;;;;;;;;;;2.65;91.89;96973.81;5077309;28;19916;-83
2023/03/09 12:22:53;;;;;;;;;;;;;;;2.60;92.71;96989.56;5077203;28;19922;-83
2023/03/09 12:25:20;;;;;;;;;;;;;;;2.51;93.05;96988.38;5060414;28;19975;-82
2023/03/09 12:27:53;;;;;;;;;;;;;;;2.57;93.45;96985.56;5073343;28;19924;-83
2023/03/09 12:30:19;;;;;;;;;;;;;;;2.55;93.57;96992.94;5076262;28;19928;-82
2023/03/09 12:32:44;;;;;;;;;;;;;;;2.62;93.50;96996.16;5077686;28;19917;-83
2023/03/09 12:35:13;;;;;;;;;;;;;;;2.61;93.36;96999.03;5076561;28;19924;-83
2023/03/09 12:38:02;;;;;;;;;;;;;;;2.81;92.01;97018.56;5076080;28;19924;-83
2023/03/09 12:40:27;;;;;;;;;;;;;;;3.03;90.93;97027.28;5073363;28;19924;-83
2023/03/09 12:42:57;;;;;;;;;;;;;;;3.24;89.89;97022.22;5076075;28;19931;-84
2023/03/09 12:45:25;;;;;;;;;;;;;;;3.44;87.64;97033.00;5072686;28;19920;-84
2023/03/09 12:48:11;;;;;;;;;;;;;;;3.40;87.90;97030.06;5072962;28;19916;-84
2023/03/09 12:50:42;;;;;;;;;;;;;;;2.98;90.74;97021.13;5073461;28;19920;-84
2023/03/09 12:53:07;;;;;;;;;;;;;;;3.29;88.90;97015.19;5077311;28;20416;-84
2023/03/09 12:55:35;;;;;;;;;;;;;;;3.45;87.14;97021.44;5076100;28;20018;-84
2023/03/09 12:58:19;;;;;;;;;;;;;;;3.48;86.34;97020.91;5072138;28;19916;-84
2023/03/09 13:01:08;;;;;;;;;;;;;;;3.49;86.38;97027.78;5077196;28;19995;-83
2023/03/09 13:03:41;;;;;;;;;;;;;;;3.52;86.10;97022.00;5074496;28;20654;-82